createdAt,value
2022-10-29T00:02:07.079Z,4.18
2022-10-29T00:04:33.816Z,4.30
2022-10-29T00:07:00.475Z,3.30
2022-10-29T00:09:27.317Z,3.72
2022-10-29T00:11:54.052Z,4.00
2022-10-29T00:14:20.765Z,4.25
2022-10-29T00:16:47.622Z,4.15
2022-10-29T00:19:14.602Z,4.13
2022-10-29T00:21:41.270Z,3.65
2022-10-29T00:24:10.689Z,3.92
2022-10-29T00:26:37.366Z,4.07
2022-10-29T00:29:04.386Z,3.80
2022-10-29T00:31:31.439Z,3.75
2022-10-29T00:33:58.647Z,4.15
2022-10-29T00:36:27.777Z,4.15
2022-10-29T00:38:54.900Z,3.85
2022-10-29T00:41:27.981Z,3.47
2022-10-29T00:44:20.347Z,4.90
2022-10-29T00:46:55.687Z,3.80
2022-10-29T00:49:24.924Z,4.18
2022-10-29T00:51:53.051Z,4.00
2022-10-29T00:54:20.103Z,3.90
2022-10-29T00:56:52.053Z,3.65
2022-10-29T00:59:19.104Z,3.40
2022-10-29T01:01:48.520Z,3.60
2022-10-29T01:04:17.170Z,3.75
2022-10-29T01:06:44.958Z,3.38
2022-10-29T01:09:11.604Z,3.65
2022-10-29T01:12:11.211Z,3.80
2022-10-29T01:15:07.087Z,3.70
2022-10-29T01:17:49.830Z,4.05
2022-10-29T01:20:31.921Z,3.92
2022-10-29T01:23:04.461Z,3.97
2022-10-29T01:25:41.662Z,4.35
2022-10-29T01:28:24.842Z,4.47
2022-10-29T01:30:57.367Z,4.50
2022-10-29T01:33:44.652Z,4.38
2022-10-29T01:36:21.981Z,4.70
2022-10-29T01:38:59.382Z,4.38
2022-10-29T01:41:41.623Z,4.32
2022-10-29T01:44:08.399Z,5.13
2022-10-29T01:46:43.065Z,4.93
2022-10-29T01:49:14.062Z,4.72
2022-10-29T01:51:43.211Z,4.60
2022-10-29T01:54:11.635Z,4.93
2022-10-29T01:56:38.546Z,5.65
2022-10-29T01:59:18.234Z,5.15
2022-10-29T02:01:55.789Z,4.80
2022-10-29T02:04:39.719Z,5.50
2022-10-29T02:07:20.695Z,5.18
2022-10-29T02:10:02.354Z,6.25
2022-10-29T02:12:33.444Z,5.30
2022-10-29T02:15:36.668Z,5.15
2022-10-29T02:18:06.166Z,6.20
2022-10-29T02:20:33.118Z,6.47
2022-10-29T02:23:00.615Z,6.10
2022-10-29T02:25:28.171Z,6.18
2022-10-29T02:27:58.693Z,7.57
2022-10-29T02:30:25.737Z,10.52
2022-10-29T02:32:52.589Z,8.73
2022-10-29T02:35:19.418Z,8.13
2022-10-29T02:37:46.316Z,7.28
2022-10-29T02:40:13.458Z,9.10
2022-10-29T02:42:40.296Z,9.20
2022-10-29T02:45:07.707Z,9.82
2022-10-29T02:47:34.574Z,10.20
2022-10-29T02:50:01.427Z,9.57
2022-10-29T02:52:28.166Z,9.52
2022-10-29T02:54:54.986Z,10.18
2022-10-29T02:57:21.929Z,9.88
2022-10-29T02:59:48.790Z,9.10
2022-10-29T03:02:15.699Z,9.88
2022-10-29T03:04:44.381Z,9.55
2022-10-29T03:07:11.353Z,9.55
2022-10-29T03:09:38.166Z,10.50
2022-10-29T03:12:05.001Z,9.68
2022-10-29T03:14:31.825Z,11.85
2022-10-29T03:16:58.654Z,8.48
2022-10-29T03:19:25.288Z,8.18
2022-10-29T03:21:52.116Z,10.65
2022-10-29T03:24:18.939Z,6.32
2022-10-29T03:26:45.621Z,6.75
2022-10-29T03:29:12.464Z,5.38
2022-10-29T03:31:39.294Z,8.82
2022-10-29T03:34:05.930Z,9.25
2022-10-29T03:36:32.791Z,10.27
2022-10-29T03:38:59.540Z,9.93
2022-10-29T03:41:26.375Z,9.77
2022-10-29T03:43:53.065Z,10.50
2022-10-29T03:46:19.942Z,9.18
2022-10-29T03:48:49.414Z,9.38
2022-10-29T03:51:16.246Z,9.40
2022-10-29T03:53:42.975Z,9.00
2022-10-29T03:56:10.583Z,8.40
2022-10-29T03:58:37.270Z,8.85
2022-10-29T04:01:06.604Z,7.78
2022-10-29T04:03:35.139Z,6.00
2022-10-29T04:06:08.587Z,7.75
2022-10-29T04:08:35.274Z,7.68
2022-10-29T04:11:01.939Z,7.15
2022-10-29T04:13:28.610Z,6.93
2022-10-29T04:15:56.383Z,6.82
2022-10-29T04:18:24.317Z,6.18
2022-10-29T04:29:11.539Z,7.47
2022-10-29T04:31:38.646Z,6.28
2022-10-29T04:34:05.598Z,7.20
2022-10-29T04:36:32.586Z,7.40
2022-10-29T04:38:59.242Z,7.22
2022-10-29T04:41:26.117Z,6.80
2022-10-29T04:43:52.935Z,6.88
2022-10-29T04:46:19.603Z,7.05
2022-10-29T04:48:46.380Z,7.10
2022-10-29T04:51:24.150Z,6.28
2022-10-29T04:53:50.967Z,6.63
2022-10-29T04:56:18.500Z,6.10
2022-10-29T04:58:45.575Z,6.32
2022-10-29T05:01:12.371Z,5.95
2022-10-29T05:03:39.360Z,6.47
2022-10-29T05:06:06.936Z,6.18
2022-10-29T05:08:33.972Z,6.05
2022-10-29T05:11:05.281Z,6.55
2022-10-29T05:13:32.569Z,7.50
2022-10-29T05:15:59.412Z,6.65
2022-10-29T05:18:26.354Z,6.80
2022-10-29T05:20:57.583Z,7.03
2022-10-29T05:23:24.642Z,7.95
2022-10-29T05:25:52.464Z,6.93
2022-10-29T05:28:21.168Z,6.90
2022-10-29T05:30:49.936Z,8.00
2022-10-29T05:33:22.578Z,8.18
2022-10-29T05:35:49.444Z,7.03
2022-10-29T05:38:16.633Z,7.18
2022-10-29T05:40:45.124Z,7.88
2022-10-29T05:43:13.696Z,7.30
2022-10-29T05:45:41.137Z,6.97
2022-10-29T05:48:08.567Z,7.60
2022-10-29T05:50:36.490Z,7.38
2022-10-29T05:53:08.257Z,8.05
2022-10-29T05:55:35.696Z,8.43
2022-10-29T05:58:05.645Z,8.63
2022-10-29T06:00:35.136Z,7.55
2022-10-29T06:03:02.110Z,8.02
2022-10-29T06:05:28.986Z,8.73
2022-10-29T06:08:00.913Z,8.30
2022-10-29T06:10:29.737Z,8.73
2022-10-29T06:12:56.648Z,8.23
2022-10-29T06:15:23.558Z,9.40
2022-10-29T06:17:50.743Z,8.50
2022-10-29T06:20:20.961Z,9.77
2022-10-29T06:22:48.090Z,8.90
2022-10-29T06:25:14.835Z,8.93
2022-10-29T06:27:41.663Z,9.65
2022-10-29T06:30:10.212Z,8.85
2022-10-29T06:32:37.106Z,8.98
2022-10-29T06:35:03.985Z,8.63
2022-10-29T06:37:33.373Z,9.05
2022-10-29T06:40:00.313Z,7.65
2022-10-29T06:42:26.984Z,7.95
2022-10-29T06:44:53.629Z,8.05
2022-10-29T06:47:20.424Z,7.60
2022-10-29T06:49:47.094Z,7.30
2022-10-29T06:52:13.825Z,8.90
2022-10-29T06:54:40.510Z,8.13
2022-10-29T06:57:07.387Z,7.32
2022-10-29T06:59:34.215Z,8.00
2022-10-29T07:02:01.043Z,7.78
2022-10-29T07:04:27.975Z,8.70
2022-10-29T07:06:54.699Z,9.20
2022-10-29T07:09:21.368Z,8.82
2022-10-29T07:11:48.309Z,9.40
2022-10-29T07:14:14.998Z,9.98
2022-10-29T07:16:41.870Z,9.60
2022-10-29T07:19:08.580Z,8.70
2022-10-29T07:21:35.390Z,8.50
2022-10-29T07:24:02.095Z,8.50
2022-10-29T07:26:28.748Z,10.98
2022-10-29T07:28:57.601Z,10.50
2022-10-29T07:31:24.806Z,8.40
2022-10-29T07:33:51.821Z,9.15
2022-10-29T07:36:18.685Z,10.13
2022-10-29T07:38:45.502Z,10.07
2022-10-29T07:41:12.141Z,11.73
2022-10-29T07:43:38.875Z,9.88
2022-10-29T07:46:05.888Z,10.85
2022-10-29T07:48:33.052Z,10.63
2022-10-29T07:51:01.046Z,12.18
2022-10-29T07:53:31.196Z,11.25
2022-10-29T07:55:59.094Z,11.27
2022-10-29T07:58:26.542Z,11.18
2022-10-29T08:00:54.255Z,11.25
2022-10-29T08:03:21.607Z,11.68
2022-10-29T08:05:56.204Z,13.40
2022-10-29T08:08:23.378Z,11.15
2022-10-29T08:10:50.064Z,12.80
2022-10-29T08:13:16.738Z,13.23
2022-10-29T08:15:46.499Z,12.70
2022-10-29T08:18:17.381Z,11.98
2022-10-29T08:20:44.760Z,14.07
2022-10-29T08:23:12.645Z,13.65
2022-10-29T08:25:42.588Z,13.90
2022-10-29T08:28:11.741Z,14.15
2022-10-29T08:30:38.977Z,12.82
2022-10-29T08:33:09.281Z,12.60
2022-10-29T08:35:36.141Z,13.85
2022-10-29T08:38:03.156Z,13.38
2022-10-29T08:40:51.519Z,13.80
2022-10-29T08:43:36.128Z,12.57
2022-10-29T08:46:03.640Z,13.02
2022-10-29T08:49:02.747Z,13.48
2022-10-29T08:51:34.933Z,12.00
2022-10-29T08:56:57.621Z,12.38
2022-10-29T08:59:27.176Z,12.63
2022-10-29T09:01:54.245Z,13.30
2022-10-29T09:04:32.877Z,12.02
2022-10-29T09:07:21.950Z,12.95
2022-10-29T09:10:16.996Z,11.90
2022-10-29T09:13:15.653Z,11.18
2022-10-29T09:16:27.674Z,10.93
2022-10-29T09:19:42.774Z,11.43
2022-10-29T09:22:28.000Z,9.90
2022-10-29T09:25:23.798Z,11.35
2022-10-29T09:27:59.823Z,10.50
2022-10-29T09:30:31.422Z,10.95
2022-10-29T09:33:07.610Z,11.65
2022-10-29T09:35:40.570Z,10.95
2022-10-29T09:38:15.114Z,10.95
2022-10-29T09:40:43.607Z,11.57
2022-10-29T09:43:23.895Z,10.80
2022-10-29T09:45:59.333Z,11.43
2022-10-29T09:48:54.228Z,11.50
2022-10-29T09:51:48.318Z,11.23
2022-10-29T09:54:16.537Z,10.73
2022-10-29T09:56:48.540Z,11.98
2022-10-29T09:59:38.670Z,12.50
2022-10-29T10:02:44.895Z,13.15
2022-10-29T10:05:16.055Z,12.98
2022-10-29T10:07:42.796Z,13.45
2022-10-29T10:10:22.080Z,11.57
2022-10-29T10:12:50.683Z,10.77
2022-10-29T10:15:22.700Z,12.48
2022-10-29T10:18:07.145Z,14.35
2022-10-29T10:20:44.352Z,13.05
2022-10-29T10:23:28.188Z,12.35
2022-10-29T10:26:00.464Z,13.30
2022-10-29T10:28:34.743Z,13.13
2022-10-29T10:31:04.264Z,12.45
2022-10-29T10:33:33.415Z,11.35
2022-10-29T10:36:07.308Z,11.93
2022-10-29T10:38:43.452Z,11.43
2022-10-29T10:41:12.429Z,12.13
2022-10-29T10:43:46.406Z,11.73
2022-10-29T10:46:22.546Z,11.02
2022-10-29T10:49:00.888Z,10.05
2022-10-29T10:51:33.258Z,8.80
2022-10-29T10:54:03.928Z,10.23
2022-10-29T10:56:30.712Z,8.93
2022-10-29T10:59:05.610Z,9.93
2022-10-29T11:01:36.055Z,9.50
2022-10-29T11:04:10.120Z,9.57
2022-10-29T11:06:40.131Z,9.90
2022-10-29T11:09:19.715Z,8.57
2022-10-29T11:12:10.686Z,9.70
2022-10-29T11:14:49.348Z,9.23
2022-10-29T11:17:54.590Z,9.07
2022-10-29T11:20:27.428Z,9.52
2022-10-29T11:23:23.442Z,8.63
2022-10-29T11:26:17.622Z,7.72
2022-10-29T11:29:12.063Z,6.78
2022-10-29T11:32:19.446Z,6.75
2022-10-29T11:35:11.498Z,7.53
2022-10-29T11:37:39.051Z,7.00
2022-10-29T11:40:13.673Z,7.50
2022-10-29T11:42:41.156Z,6.50
2022-10-29T11:45:13.605Z,7.90
2022-10-29T11:47:49.704Z,6.53
2022-10-29T11:50:29.766Z,6.82
2022-10-29T11:53:25.746Z,6.82
2022-10-29T11:56:00.647Z,7.40
2022-10-29T11:58:39.634Z,6.38
2022-10-29T12:01:15.207Z,7.13
2022-10-29T12:06:55.753Z,8.27
2022-10-29T12:09:43.563Z,7.03
2022-10-29T12:12:18.731Z,7.20
2022-10-29T12:14:53.454Z,7.85
2022-10-29T12:17:32.593Z,7.45
2022-10-29T12:20:24.996Z,7.28
2022-10-29T12:23:11.953Z,7.80
2022-10-29T12:26:03.429Z,7.35
2022-10-29T12:28:51.677Z,8.90
2022-10-29T12:31:29.203Z,8.20
2022-10-29T12:34:08.456Z,8.82
2022-10-29T12:36:59.669Z,9.18
2022-10-29T12:39:31.340Z,8.70
2022-10-29T12:42:13.098Z,9.30
2022-10-29T12:44:51.765Z,8.95
2022-10-29T12:47:29.982Z,9.13
2022-10-29T12:50:28.703Z,9.32
2022-10-29T12:53:10.062Z,8.90
2022-10-29T12:55:37.191Z,8.07
2022-10-29T12:58:41.485Z,8.30
2022-10-29T13:01:57.416Z,8.93
2022-10-29T13:04:34.087Z,8.55
2022-10-29T13:07:12.654Z,8.07
2022-10-29T13:09:41.954Z,8.32
2022-10-29T13:12:12.883Z,8.70
2022-10-29T13:14:45.728Z,8.43
2022-10-29T13:17:32.828Z,9.23
2022-10-29T13:20:07.918Z,10.10
2022-10-29T13:22:56.049Z,8.93
2022-10-29T13:25:38.301Z,9.10
2022-10-29T13:30:40.407Z,8.70
2022-10-29T13:33:21.929Z,9.60
2022-10-29T13:35:58.857Z,8.43
2022-10-29T13:39:05.213Z,8.70
2022-10-29T13:41:42.835Z,9.55
2022-10-29T13:44:20.431Z,10.02
2022-10-29T13:47:01.591Z,9.68
2022-10-29T13:49:32.746Z,9.00
2022-10-29T13:52:03.885Z,8.83
2022-10-29T13:55:00.871Z,9.30
2022-10-29T13:57:37.997Z,9.25
2022-10-29T14:00:10.887Z,9.50
2022-10-29T14:02:39.271Z,9.70
2022-10-29T14:05:14.916Z,9.18
2022-10-29T14:07:51.435Z,9.48
2022-10-29T14:10:23.598Z,10.40
2022-10-29T14:12:57.676Z,9.18
2022-10-29T14:15:24.899Z,9.15
2022-10-29T14:17:51.796Z,9.65
2022-10-29T14:20:29.218Z,9.00
2022-10-29T14:22:56.460Z,9.68
2022-10-29T14:25:36.179Z,8.90
2022-10-29T14:28:30.084Z,8.10
2022-10-29T14:31:15.032Z,8.07
2022-10-29T14:33:46.822Z,7.97
2022-10-29T14:36:20.630Z,8.25
2022-10-29T14:38:58.454Z,7.80
2022-10-29T14:41:26.471Z,8.70
2022-10-29T14:44:17.631Z,8.77
2022-10-29T14:47:07.788Z,8.57
2022-10-29T14:49:40.739Z,7.88
2022-10-29T14:52:26.642Z,8.25
2022-10-29T14:54:53.955Z,8.68
2022-10-29T14:57:23.471Z,8.68
2022-10-29T14:59:54.295Z,8.60
2022-10-29T15:02:37.524Z,9.93
2022-10-29T15:05:20.862Z,8.90
2022-10-29T15:07:47.936Z,8.68
2022-10-29T15:10:23.185Z,7.93
2022-10-29T15:12:52.341Z,9.32
2022-10-29T15:15:19.164Z,8.90
2022-10-29T15:17:56.429Z,8.65
2022-10-29T15:20:27.495Z,8.82
2022-10-29T15:22:56.560Z,9.45
2022-10-29T15:25:36.302Z,8.95
2022-10-29T15:28:04.022Z,8.45
2022-10-29T15:30:35.852Z,9.02
2022-10-29T15:33:08.253Z,7.97
2022-10-29T15:35:36.468Z,7.60
2022-10-29T15:38:03.604Z,8.40
2022-10-29T15:40:30.444Z,7.97
2022-10-29T15:43:30.044Z,7.30
2022-10-29T15:45:58.052Z,7.65
2022-10-29T15:48:36.167Z,8.50
2022-10-29T15:51:04.071Z,7.80
2022-10-29T15:53:30.729Z,7.32
2022-10-29T15:55:58.165Z,7.97
2022-10-29T15:58:24.918Z,8.55
2022-10-29T16:00:51.886Z,8.13
2022-10-29T16:03:26.767Z,8.18
2022-10-29T16:06:04.098Z,9.73
2022-10-29T16:08:47.491Z,8.38
2022-10-29T16:11:16.819Z,8.63
2022-10-29T16:13:43.524Z,8.73
2022-10-29T16:16:17.463Z,8.90
2022-10-29T16:18:45.545Z,9.55
2022-10-29T16:21:21.679Z,9.40
2022-10-29T16:23:49.151Z,10.20
2022-10-29T16:26:18.780Z,9.60
2022-10-29T16:28:45.722Z,9.30
2022-10-29T16:31:23.217Z,8.88
2022-10-29T16:33:51.925Z,9.27
2022-10-29T16:36:19.282Z,8.90
2022-10-29T16:38:46.033Z,9.20
2022-10-29T16:41:18.624Z,9.35
2022-10-29T16:43:46.217Z,9.60
2022-10-29T16:46:14.029Z,10.15
2022-10-29T16:48:41.157Z,10.35
2022-10-29T16:51:08.042Z,10.15
2022-10-29T16:53:35.136Z,9.73
2022-10-29T16:56:01.965Z,8.75
2022-10-29T16:58:28.886Z,8.23
2022-10-29T17:01:04.913Z,8.88
2022-10-29T17:03:33.103Z,7.93
2022-10-29T17:06:08.983Z,8.73
2022-10-29T17:08:36.869Z,9.38
2022-10-29T17:11:06.112Z,9.60
2022-10-29T17:13:34.429Z,8.82
2022-10-29T17:16:01.369Z,9.48
2022-10-29T17:18:28.029Z,8.95
2022-10-29T17:20:59.882Z,9.63
2022-10-29T17:23:27.282Z,9.10
2022-10-29T17:25:54.969Z,8.63
2022-10-29T17:28:25.875Z,8.15
2022-10-29T17:30:52.941Z,9.30
2022-10-29T17:33:19.955Z,9.80
2022-10-29T17:35:46.750Z,9.23
2022-10-29T17:38:13.648Z,8.40
2022-10-29T17:40:44.352Z,8.55
2022-10-29T17:43:11.162Z,9.63
2022-10-29T17:45:38.042Z,9.05
2022-10-29T17:48:04.883Z,8.45
2022-10-29T17:50:31.806Z,9.18
2022-10-29T17:52:58.669Z,10.15
2022-10-29T17:55:25.394Z,9.48
2022-10-29T17:57:52.055Z,10.07
2022-10-29T18:00:19.331Z,9.75
2022-10-29T18:02:49.921Z,9.50
2022-10-29T18:05:17.414Z,9.55
2022-10-29T18:07:44.396Z,9.65
2022-10-29T18:10:11.257Z,10.15
2022-10-29T18:12:37.947Z,12.73
2022-10-29T18:15:05.380Z,11.40
2022-10-29T18:17:32.700Z,11.75
2022-10-29T18:19:59.418Z,10.95
2022-10-29T18:22:26.374Z,9.90
2022-10-29T18:24:53.456Z,8.90
2022-10-29T18:27:20.427Z,9.98
2022-10-29T18:29:47.320Z,9.35
2022-10-29T18:32:14.085Z,8.95
2022-10-29T18:34:40.820Z,7.85
2022-10-29T18:37:07.691Z,9.70
2022-10-29T18:39:34.554Z,10.50
2022-10-29T18:42:01.489Z,8.80
2022-10-29T18:44:28.314Z,9.45
2022-10-29T18:46:55.326Z,8.57
2022-10-29T18:49:22.627Z,10.38
2022-10-29T18:51:49.390Z,9.38
2022-10-29T18:54:16.578Z,8.88
2022-10-29T18:56:43.327Z,9.05
2022-10-29T18:59:11.351Z,10.25
2022-10-29T19:01:38.582Z,47.63
2022-10-29T19:04:08.080Z,22.08
2022-10-29T19:06:36.699Z,16.80
2022-10-29T19:09:06.871Z,10.50
2022-10-29T19:11:33.821Z,11.18
2022-10-29T19:14:03.189Z,10.15
2022-10-29T19:16:31.126Z,10.05
2022-10-29T19:19:00.269Z,10.00
2022-10-29T19:21:27.216Z,9.48
2022-10-29T19:23:55.875Z,9.55
2022-10-29T19:26:23.114Z,11.60
2022-10-29T19:28:50.145Z,10.63
2022-10-29T19:31:23.122Z,12.00
2022-10-29T19:33:52.042Z,10.93
2022-10-29T19:36:19.452Z,10.80
2022-10-29T19:38:46.299Z,10.10
2022-10-29T19:41:13.701Z,9.80
2022-10-29T19:43:41.440Z,13.15
2022-10-29T19:46:13.580Z,11.73
2022-10-29T19:51:08.020Z,9.35
2022-10-29T19:53:34.719Z,8.88
2022-10-29T19:56:01.439Z,8.95
2022-10-29T19:58:28.393Z,8.68
2022-10-29T20:01:02.785Z,9.48
2022-10-29T20:03:29.737Z,9.25
2022-10-29T20:05:56.416Z,10.70
2022-10-29T20:08:23.379Z,10.88
2022-10-29T20:11:02.210Z,13.60
2022-10-29T20:13:28.913Z,12.63
2022-10-29T20:15:55.965Z,13.15
2022-10-29T20:18:23.012Z,13.90
2022-10-29T20:20:57.051Z,12.57
2022-10-29T20:23:25.737Z,10.70
2022-10-29T20:25:52.655Z,11.40
2022-10-29T20:28:19.367Z,10.57
2022-10-29T20:30:46.006Z,11.60
2022-10-29T20:33:12.747Z,12.93
2022-10-29T20:35:39.461Z,13.82
2022-10-29T20:38:06.263Z,14.82
2022-10-29T20:40:33.062Z,13.77
2022-10-29T20:42:59.811Z,13.43
2022-10-29T20:45:26.854Z,14.23
2022-10-29T20:47:53.565Z,16.25
2022-10-29T20:50:20.247Z,14.90
2022-10-29T20:52:49.060Z,14.75
2022-10-29T20:55:16.289Z,14.10
2022-10-29T20:57:43.026Z,11.80
2022-10-29T21:00:10.327Z,12.13
2022-10-29T21:02:37.089Z,10.25
2022-10-29T21:05:04.206Z,11.13
2022-10-29T21:07:30.859Z,9.30
2022-10-29T21:09:57.519Z,10.20
2022-10-29T21:12:24.147Z,10.93
2022-10-29T21:14:50.756Z,9.77
2022-10-29T21:17:17.371Z,10.43
2022-10-29T21:19:44.037Z,10.38
2022-10-29T21:22:10.763Z,9.68
2022-10-29T21:24:39.198Z,9.68
2022-10-29T21:27:07.000Z,9.30
2022-10-29T21:29:33.651Z,9.90
2022-10-29T21:32:00.289Z,9.32
2022-10-29T21:34:26.946Z,9.93
2022-10-29T21:36:54.884Z,10.70
2022-10-29T21:39:21.503Z,10.02
2022-10-29T21:41:48.162Z,10.50
2022-10-29T21:44:14.826Z,9.65
2022-10-29T21:46:41.528Z,8.95
2022-10-29T21:49:08.252Z,9.57
2022-10-29T21:51:35.079Z,9.50
2022-10-29T21:54:01.729Z,8.82
2022-10-29T21:56:28.402Z,9.02
2022-10-29T21:58:55.199Z,9.05
2022-10-29T22:01:21.957Z,8.90
2022-10-29T22:03:48.765Z,8.50
2022-10-29T22:06:20.746Z,9.23
2022-10-29T22:08:52.450Z,8.73
2022-10-29T22:11:19.150Z,9.30
2022-10-29T22:13:45.866Z,8.55
2022-10-29T22:16:12.998Z,9.25
2022-10-29T22:18:39.997Z,8.30
2022-10-29T22:21:16.980Z,9.15
2022-10-29T22:23:45.726Z,8.85
2022-10-29T22:26:14.020Z,9.38
2022-10-29T22:28:40.854Z,7.90
2022-10-29T22:31:07.962Z,9.05
2022-10-29T22:33:35.286Z,8.70
2022-10-29T22:36:11.868Z,8.95
2022-10-29T22:38:38.867Z,9.02
2022-10-29T22:41:16.686Z,8.60
2022-10-29T22:43:44.386Z,8.52
2022-10-29T22:46:13.892Z,8.60
2022-10-29T22:48:40.929Z,9.80
2022-10-29T22:51:14.597Z,8.98
2022-10-29T22:53:41.584Z,9.52
2022-10-29T22:56:13.193Z,8.63
2022-10-29T22:58:39.854Z,9.18
2022-10-29T23:01:11.793Z,8.98
2022-10-29T23:03:40.185Z,9.13
2022-10-29T23:06:09.186Z,8.32
2022-10-29T23:08:36.132Z,8.38
2022-10-29T23:11:21.170Z,9.20
2022-10-29T23:13:53.594Z,8.27
2022-10-29T23:16:20.884Z,8.60
2022-10-29T23:18:52.584Z,8.85
2022-10-29T23:21:20.217Z,8.57
2022-10-29T23:23:49.659Z,8.70
2022-10-29T23:26:18.765Z,8.38
2022-10-29T23:28:46.177Z,8.02
2022-10-29T23:31:15.627Z,9.10
2022-10-29T23:33:47.256Z,8.35
2022-10-29T23:36:15.489Z,8.88
2022-10-29T23:38:42.448Z,8.45
2022-10-29T23:41:10.073Z,7.85
2022-10-29T23:43:36.802Z,8.45
2022-10-29T23:46:03.579Z,9.65
2022-10-29T23:48:30.414Z,7.78
2022-10-29T23:50:57.232Z,8.48
2022-10-29T23:53:24.513Z,7.82
2022-10-29T23:55:51.230Z,8.07
2022-10-29T23:58:18.194Z,8.43
